sensor_id;sensor_type;location;lat;lon;timestamp;P1;durP1;ratioP1;P2;durP2;ratioP2
54555;SDS011;57291;37.520;15.106;2023-05-07T00:00:15;9.35;;;5.97;;
54555;SDS011;57291;37.520;15.106;2023-05-07T00:02:45;9.82;;;6.53;;
54555;SDS011;57291;37.520;15.106;2023-05-07T00:05:13;10.05;;;6.43;;
54555;SDS011;57291;37.520;15.106;2023-05-07T00:07:41;8.90;;;6.50;;
54555;SDS011;57291;37.520;15.106;2023-05-07T00:10:09;11.60;;;6.63;;
54555;SDS011;57291;37.520;15.106;2023-05-07T00:12:39;14.90;;;6.90;;
54555;SDS011;57291;37.520;15.106;2023-05-07T00:15:07;11.48;;;6.88;;
54555;SDS011;57291;37.520;15.106;2023-05-07T00:17:35;10.50;;;6.38;;
54555;SDS011;57291;37.520;15.106;2023-05-07T00:20:03;12.57;;;7.07;;
54555;SDS011;57291;37.520;15.106;2023-05-07T00:22:31;11.27;;;7.07;;
54555;SDS011;57291;37.520;15.106;2023-05-07T00:24:58;10.05;;;7.25;;
54555;SDS011;57291;37.520;15.106;2023-05-07T00:27:26;10.82;;;7.10;;
54555;SDS011;57291;37.520;15.106;2023-05-07T00:29:53;16.27;;;8.43;;
54555;SDS011;57291;37.520;15.106;2023-05-07T00:32:20;10.55;;;6.95;;
54555;SDS011;57291;37.520;15.106;2023-05-07T00:34:47;13.55;;;7.38;;
54555;SDS011;57291;37.520;15.106;2023-05-07T00:37:15;14.77;;;7.88;;
54555;SDS011;57291;37.520;15.106;2023-05-07T00:39:42;16.65;;;8.77;;
54555;SDS011;57291;37.520;15.106;2023-05-07T00:42:09;17.52;;;8.48;;
54555;SDS011;57291;37.520;15.106;2023-05-07T00:44:36;16.98;;;8.90;;
54555;SDS011;57291;37.520;15.106;2023-05-07T00:47:03;15.25;;;10.02;;
54555;SDS011;57291;37.520;15.106;2023-05-07T00:49:39;15.93;;;9.25;;
54555;SDS011;57291;37.520;15.106;2023-05-07T00:52:13;14.85;;;9.52;;
54555;SDS011;57291;37.520;15.106;2023-05-07T00:54:42;19.67;;;10.95;;
54555;SDS011;57291;37.520;15.106;2023-05-07T00:57:10;14.65;;;9.68;;
54555;SDS011;57291;37.520;15.106;2023-05-07T00:59:38;15.55;;;10.02;;
54555;SDS011;57291;37.520;15.106;2023-05-07T01:02:07;19.38;;;12.27;;
54555;SDS011;57291;37.520;15.106;2023-05-07T01:04:34;16.27;;;10.48;;
54555;SDS011;57291;37.520;15.106;2023-05-07T01:07:02;17.80;;;11.35;;
54555;SDS011;57291;37.520;15.106;2023-05-07T01:09:31;17.23;;;11.07;;
54555;SDS011;57291;37.520;15.106;2023-05-07T01:11:59;16.17;;;11.07;;
54555;SDS011;57291;37.520;15.106;2023-05-07T01:14:26;16.55;;;10.38;;
54555;SDS011;57291;37.520;15.106;2023-05-07T01:16:53;17.80;;;10.73;;
54555;SDS011;57291;37.520;15.106;2023-05-07T01:19:23;18.05;;;10.77;;
54555;SDS011;57291;37.520;15.106;2023-05-07T01:21:51;19.50;;;11.82;;
54555;SDS011;57291;37.520;15.106;2023-05-07T01:24:20;22.67;;;12.30;;
54555;SDS011;57291;37.520;15.106;2023-05-07T01:26:47;19.38;;;10.90;;
54555;SDS011;57291;37.520;15.106;2023-05-07T01:29:16;17.40;;;10.85;;
54555;SDS011;57291;37.520;15.106;2023-05-07T01:31:45;17.42;;;11.45;;
54555;SDS011;57291;37.520;15.106;2023-05-07T01:34:14;24.33;;;12.43;;
54555;SDS011;57291;37.520;15.106;2023-05-07T01:36:44;20.08;;;12.48;;
54555;SDS011;57291;37.520;15.106;2023-05-07T01:39:12;17.73;;;11.90;;
54555;SDS011;57291;37.520;15.106;2023-05-07T01:41:40;22.20;;;12.27;;
54555;SDS011;57291;37.520;15.106;2023-05-07T01:44:08;17.55;;;11.30;;
54555;SDS011;57291;37.520;15.106;2023-05-07T01:46:39;16.92;;;11.57;;
54555;SDS011;57291;37.520;15.106;2023-05-07T01:49:07;18.40;;;11.10;;
54555;SDS011;57291;37.520;15.106;2023-05-07T01:51:34;19.00;;;11.80;;
54555;SDS011;57291;37.520;15.106;2023-05-07T01:54:02;16.80;;;11.07;;
54555;SDS011;57291;37.520;15.106;2023-05-07T01:56:29;18.98;;;11.13;;
54555;SDS011;57291;37.520;15.106;2023-05-07T01:58:56;19.90;;;11.77;;
54555;SDS011;57291;37.520;15.106;2023-05-07T02:01:24;18.73;;;11.82;;
54555;SDS011;57291;37.520;15.106;2023-05-07T02:03:51;19.40;;;11.75;;
54555;SDS011;57291;37.520;15.106;2023-05-07T02:06:23;16.35;;;12.00;;
54555;SDS011;57291;37.520;15.106;2023-05-07T02:08:54;24.08;;;12.68;;
54555;SDS011;57291;37.520;15.106;2023-05-07T02:11:21;22.95;;;12.60;;
54555;SDS011;57291;37.520;15.106;2023-05-07T02:13:49;18.88;;;12.70;;
54555;SDS011;57291;37.520;15.106;2023-05-07T02:16:16;19.17;;;12.70;;
54555;SDS011;57291;37.520;15.106;2023-05-07T02:18:43;20.50;;;13.57;;
54555;SDS011;57291;37.520;15.106;2023-05-07T02:21:10;26.85;;;14.82;;
54555;SDS011;57291;37.520;15.106;2023-05-07T02:23:37;18.98;;;12.85;;
54555;SDS011;57291;37.520;15.106;2023-05-07T02:26:04;22.15;;;14.15;;
54555;SDS011;57291;37.520;15.106;2023-05-07T02:28:32;22.25;;;14.02;;
54555;SDS011;57291;37.520;15.106;2023-05-07T02:31:03;21.95;;;13.98;;
54555;SDS011;57291;37.520;15.106;2023-05-07T02:33:32;23.95;;;13.35;;
54555;SDS011;57291;37.520;15.106;2023-05-07T02:36:10;22.98;;;14.40;;
54555;SDS011;57291;37.520;15.106;2023-05-07T02:38:48;23.05;;;15.82;;
54555;SDS011;57291;37.520;15.106;2023-05-07T02:41:15;25.63;;;15.57;;
54555;SDS011;57291;37.520;15.106;2023-05-07T02:43:42;19.80;;;13.77;;
54555;SDS011;57291;37.520;15.106;2023-05-07T02:46:09;22.95;;;13.95;;
54555;SDS011;57291;37.520;15.106;2023-05-07T02:48:42;25.65;;;15.30;;
54555;SDS011;57291;37.520;15.106;2023-05-07T02:51:09;24.45;;;14.73;;
54555;SDS011;57291;37.520;15.106;2023-05-07T02:53:39;26.52;;;15.55;;
54555;SDS011;57291;37.520;15.106;2023-05-07T02:56:06;26.63;;;16.00;;
54555;SDS011;57291;37.520;15.106;2023-05-07T02:58:33;26.90;;;15.77;;
54555;SDS011;57291;37.520;15.106;2023-05-07T03:01:02;25.65;;;16.10;;
54555;SDS011;57291;37.520;15.106;2023-05-07T03:03:46;24.35;;;14.82;;
54555;SDS011;57291;37.520;15.106;2023-05-07T03:06:13;25.42;;;14.43;;
54555;SDS011;57291;37.520;15.106;2023-05-07T03:08:41;24.15;;;16.27;;
54555;SDS011;57291;37.520;15.106;2023-05-07T03:11:08;26.15;;;15.25;;
54555;SDS011;57291;37.520;15.106;2023-05-07T03:13:35;24.20;;;14.63;;
54555;SDS011;57291;37.520;15.106;2023-05-07T03:16:03;26.65;;;16.67;;
54555;SDS011;57291;37.520;15.106;2023-05-07T03:18:30;29.13;;;16.35;;
54555;SDS011;57291;37.520;15.106;2023-05-07T03:20:57;22.42;;;15.07;;
54555;SDS011;57291;37.520;15.106;2023-05-07T03:23:25;24.65;;;15.02;;
54555;SDS011;57291;37.520;15.106;2023-05-07T03:25:52;26.98;;;16.08;;
54555;SDS011;57291;37.520;15.106;2023-05-07T03:28:20;26.75;;;14.80;;
54555;SDS011;57291;37.520;15.106;2023-05-07T03:30:52;24.10;;;15.00;;
54555;SDS011;57291;37.520;15.106;2023-05-07T03:33:20;25.23;;;15.38;;
54555;SDS011;57291;37.520;15.106;2023-05-07T03:35:47;22.27;;;14.85;;
54555;SDS011;57291;37.520;15.106;2023-05-07T03:38:19;25.35;;;15.13;;
54555;SDS011;57291;37.520;15.106;2023-05-07T03:40:46;23.73;;;14.15;;
54555;SDS011;57291;37.520;15.106;2023-05-07T03:43:14;20.85;;;13.88;;
54555;SDS011;57291;37.520;15.106;2023-05-07T03:45:46;18.90;;;12.95;;
54555;SDS011;57291;37.520;15.106;2023-05-07T03:48:17;16.50;;;11.73;;
54555;SDS011;57291;37.520;15.106;2023-05-07T03:50:46;20.35;;;13.13;;
54555;SDS011;57291;37.520;15.106;2023-05-07T03:53:16;18.50;;;11.95;;
54555;SDS011;57291;37.520;15.106;2023-05-07T03:55:43;19.38;;;12.43;;
54555;SDS011;57291;37.520;15.106;2023-05-07T03:58:11;18.60;;;12.20;;
54555;SDS011;57291;37.520;15.106;2023-05-07T04:00:38;18.73;;;10.85;;
54555;SDS011;57291;37.520;15.106;2023-05-07T04:03:20;20.40;;;11.13;;
54555;SDS011;57291;37.520;15.106;2023-05-07T04:05:48;16.42;;;11.82;;
54555;SDS011;57291;37.520;15.106;2023-05-07T04:08:15;20.17;;;12.43;;
54555;SDS011;57291;37.520;15.106;2023-05-07T04:10:46;17.80;;;12.02;;
54555;SDS011;57291;37.520;15.106;2023-05-07T04:13:13;18.80;;;11.93;;
54555;SDS011;57291;37.520;15.106;2023-05-07T04:15:41;18.02;;;12.13;;
54555;SDS011;57291;37.520;15.106;2023-05-07T04:18:11;15.13;;;11.32;;
54555;SDS011;57291;37.520;15.106;2023-05-07T04:20:42;17.05;;;12.20;;
54555;SDS011;57291;37.520;15.106;2023-05-07T04:23:11;19.20;;;13.10;;
54555;SDS011;57291;37.520;15.106;2023-05-07T04:25:39;19.63;;;13.05;;
54555;SDS011;57291;37.520;15.106;2023-05-07T04:28:15;19.25;;;12.38;;
54555;SDS011;57291;37.520;15.106;2023-05-07T04:30:42;21.10;;;12.82;;
54555;SDS011;57291;37.520;15.106;2023-05-07T04:33:10;20.00;;;12.50;;
54555;SDS011;57291;37.520;15.106;2023-05-07T04:35:40;17.50;;;12.48;;
54555;SDS011;57291;37.520;15.106;2023-05-07T04:38:08;19.50;;;13.20;;
54555;SDS011;57291;37.520;15.106;2023-05-07T04:40:36;18.88;;;12.02;;
54555;SDS011;57291;37.520;15.106;2023-05-07T04:43:03;20.83;;;12.73;;
54555;SDS011;57291;37.520;15.106;2023-05-07T04:45:38;17.85;;;11.10;;
54555;SDS011;57291;37.520;15.106;2023-05-07T04:48:08;15.95;;;10.90;;
54555;SDS011;57291;37.520;15.106;2023-05-07T04:50:38;16.00;;;10.65;;
54555;SDS011;57291;37.520;15.106;2023-05-07T04:53:07;16.73;;;11.40;;
54555;SDS011;57291;37.520;15.106;2023-05-07T04:55:34;15.40;;;10.88;;
54555;SDS011;57291;37.520;15.106;2023-05-07T04:58:02;14.43;;;10.10;;
54555;SDS011;57291;37.520;15.106;2023-05-07T05:00:33;16.05;;;10.50;;
54555;SDS011;57291;37.520;15.106;2023-05-07T05:03:03;15.63;;;10.10;;
54555;SDS011;57291;37.520;15.106;2023-05-07T05:05:32;14.23;;;10.10;;
54555;SDS011;57291;37.520;15.106;2023-05-07T05:08:00;12.02;;;9.27;;
54555;SDS011;57291;37.520;15.106;2023-05-07T05:10:27;16.08;;;10.23;;
54555;SDS011;57291;37.520;15.106;2023-05-07T05:12:55;20.30;;;12.30;;
54555;SDS011;57291;37.520;15.106;2023-05-07T05:15:23;17.20;;;11.95;;
54555;SDS011;57291;37.520;15.106;2023-05-07T05:17:51;21.67;;;12.55;;
54555;SDS011;57291;37.520;15.106;2023-05-07T05:20:18;21.48;;;12.65;;
54555;SDS011;57291;37.520;15.106;2023-05-07T05:22:47;23.23;;;12.07;;
54555;SDS011;57291;37.520;15.106;2023-05-07T05:25:14;21.42;;;13.35;;
54555;SDS011;57291;37.520;15.106;2023-05-07T05:27:42;21.67;;;13.38;;
54555;SDS011;57291;37.520;15.106;2023-05-07T05:30:09;21.10;;;13.50;;
54555;SDS011;57291;37.520;15.106;2023-05-07T05:32:37;20.10;;;12.63;;
54555;SDS011;57291;37.520;15.106;2023-05-07T05:35:05;22.25;;;12.00;;
54555;SDS011;57291;37.520;15.106;2023-05-07T05:37:34;18.38;;;12.73;;
54555;SDS011;57291;37.520;15.106;2023-05-07T05:40:04;19.17;;;12.35;;
54555;SDS011;57291;37.520;15.106;2023-05-07T05:42:32;19.80;;;12.95;;
54555;SDS011;57291;37.520;15.106;2023-05-07T05:44:59;19.85;;;12.13;;
54555;SDS011;57291;37.520;15.106;2023-05-07T05:47:28;19.73;;;12.15;;
54555;SDS011;57291;37.520;15.106;2023-05-07T05:49:56;16.85;;;10.63;;
54555;SDS011;57291;37.520;15.106;2023-05-07T05:52:24;16.95;;;12.45;;
54555;SDS011;57291;37.520;15.106;2023-05-07T05:54:53;17.98;;;10.85;;
54555;SDS011;57291;37.520;15.106;2023-05-07T05:57:20;18.13;;;11.30;;
54555;SDS011;57291;37.520;15.106;2023-05-07T05:59:48;19.35;;;10.90;;
54555;SDS011;57291;37.520;15.106;2023-05-07T06:02:15;18.48;;;11.05;;
54555;SDS011;57291;37.520;15.106;2023-05-07T06:04:42;18.00;;;11.45;;
54555;SDS011;57291;37.520;15.106;2023-05-07T06:07:13;15.65;;;11.57;;
54555;SDS011;57291;37.520;15.106;2023-05-07T06:09:40;17.45;;;10.70;;
54555;SDS011;57291;37.520;15.106;2023-05-07T06:12:07;14.75;;;10.65;;
54555;SDS011;57291;37.520;15.106;2023-05-07T06:14:35;19.67;;;12.38;;
54555;SDS011;57291;37.520;15.106;2023-05-07T06:17:02;16.27;;;10.85;;
54555;SDS011;57291;37.520;15.106;2023-05-07T06:19:30;15.98;;;10.18;;
54555;SDS011;57291;37.520;15.106;2023-05-07T06:21:58;11.30;;;8.82;;
54555;SDS011;57291;37.520;15.106;2023-05-07T06:24:29;17.15;;;8.38;;
54555;SDS011;57291;37.520;15.106;2023-05-07T06:26:56;12.80;;;7.97;;
54555;SDS011;57291;37.520;15.106;2023-05-07T06:29:27;13.73;;;8.82;;
54555;SDS011;57291;37.520;15.106;2023-05-07T06:31:54;15.10;;;10.38;;
54555;SDS011;57291;37.520;15.106;2023-05-07T06:34:22;14.35;;;9.98;;
54555;SDS011;57291;37.520;15.106;2023-05-07T06:36:49;14.63;;;8.93;;
54555;SDS011;57291;37.520;15.106;2023-05-07T06:39:36;16.23;;;10.10;;
54555;SDS011;57291;37.520;15.106;2023-05-07T06:42:03;12.38;;;8.70;;
54555;SDS011;57291;37.520;15.106;2023-05-07T06:44:32;12.30;;;7.80;;
54555;SDS011;57291;37.520;15.106;2023-05-07T06:47:14;9.73;;;5.75;;
54555;SDS011;57291;37.520;15.106;2023-05-07T06:49:44;9.50;;;5.90;;
54555;SDS011;57291;37.520;15.106;2023-05-07T06:52:15;9.98;;;6.80;;
54555;SDS011;57291;37.520;15.106;2023-05-07T06:54:43;12.27;;;5.95;;
54555;SDS011;57291;37.520;15.106;2023-05-07T06:57:13;7.82;;;6.22;;
54555;SDS011;57291;37.520;15.106;2023-05-07T06:59:40;8.35;;;5.03;;
54555;SDS011;57291;37.520;15.106;2023-05-07T07:02:08;6.88;;;5.20;;
54555;SDS011;57291;37.520;15.106;2023-05-07T07:04:35;7.45;;;5.72;;
54555;SDS011;57291;37.520;15.106;2023-05-07T07:07:08;9.82;;;7.03;;
54555;SDS011;57291;37.520;15.106;2023-05-07T07:09:36;9.15;;;6.55;;
54555;SDS011;57291;37.520;15.106;2023-05-07T07:12:04;10.27;;;8.20;;
54555;SDS011;57291;37.520;15.106;2023-05-07T07:14:35;11.10;;;7.38;;
54555;SDS011;57291;37.520;15.106;2023-05-07T07:17:03;12.27;;;6.82;;
54555;SDS011;57291;37.520;15.106;2023-05-07T07:19:33;8.32;;;6.63;;
54555;SDS011;57291;37.520;15.106;2023-05-07T07:22:02;11.75;;;7.53;;
54555;SDS011;57291;37.520;15.106;2023-05-07T07:24:31;11.38;;;8.00;;
54555;SDS011;57291;37.520;15.106;2023-05-07T07:27:01;9.75;;;7.15;;
54555;SDS011;57291;37.520;15.106;2023-05-07T07:29:30;10.02;;;6.05;;
54555;SDS011;57291;37.520;15.106;2023-05-07T07:31:57;8.68;;;5.93;;
54555;SDS011;57291;37.520;15.106;2023-05-07T07:34:24;8.63;;;5.43;;
54555;SDS011;57291;37.520;15.106;2023-05-07T07:36:52;8.77;;;5.50;;
54555;SDS011;57291;37.520;15.106;2023-05-07T07:39:19;7.95;;;5.47;;
54555;SDS011;57291;37.520;15.106;2023-05-07T07:41:49;12.15;;;4.80;;
54555;SDS011;57291;37.520;15.106;2023-05-07T07:44:18;6.88;;;4.25;;
54555;SDS011;57291;37.520;15.106;2023-05-07T07:46:50;5.63;;;4.05;;
54555;SDS011;57291;37.520;15.106;2023-05-07T07:49:19;5.78;;;4.10;;
54555;SDS011;57291;37.520;15.106;2023-05-07T07:51:47;7.55;;;4.88;;
54555;SDS011;57291;37.520;15.106;2023-05-07T07:54:15;6.13;;;4.38;;
54555;SDS011;57291;37.520;15.106;2023-05-07T07:56:43;7.32;;;5.00;;
54555;SDS011;57291;37.520;15.106;2023-05-07T07:59:12;7.20;;;5.20;;
54555;SDS011;57291;37.520;15.106;2023-05-07T08:01:41;8.05;;;5.30;;
54555;SDS011;57291;37.520;15.106;2023-05-07T08:04:08;8.10;;;5.00;;
54555;SDS011;57291;37.520;15.106;2023-05-07T08:06:39;7.40;;;4.50;;
54555;SDS011;57291;37.520;15.106;2023-05-07T08:09:08;12.60;;;5.15;;
54555;SDS011;57291;37.520;15.106;2023-05-07T08:11:37;6.40;;;4.50;;
54555;SDS011;57291;37.520;15.106;2023-05-07T08:14:04;7.13;;;4.38;;
54555;SDS011;57291;37.520;15.106;2023-05-07T08:16:31;12.73;;;8.85;;
54555;SDS011;57291;37.520;15.106;2023-05-07T08:19:00;6.50;;;5.05;;
54555;SDS011;57291;37.520;15.106;2023-05-07T08:21:28;6.65;;;4.97;;
54555;SDS011;57291;37.520;15.106;2023-05-07T08:23:56;14.35;;;8.82;;
54555;SDS011;57291;37.520;15.106;2023-05-07T08:26:24;6.80;;;5.03;;
54555;SDS011;57291;37.520;15.106;2023-05-07T08:28:51;5.20;;;4.15;;
54555;SDS011;57291;37.520;15.106;2023-05-07T08:31:18;8.45;;;4.70;;
54555;SDS011;57291;37.520;15.106;2023-05-07T08:33:46;6.88;;;4.30;;
54555;SDS011;57291;37.520;15.106;2023-05-07T08:36:14;8.57;;;4.35;;
54555;SDS011;57291;37.520;15.106;2023-05-07T08:38:42;10.23;;;4.35;;
54555;SDS011;57291;37.520;15.106;2023-05-07T08:41:12;8.88;;;5.13;;
54555;SDS011;57291;37.520;15.106;2023-05-07T08:43:42;7.10;;;5.00;;
54555;SDS011;57291;37.520;15.106;2023-05-07T08:46:15;7.55;;;5.78;;
54555;SDS011;57291;37.520;15.106;2023-05-07T08:48:50;7.97;;;5.15;;
54555;SDS011;57291;37.520;15.106;2023-05-07T08:51:19;7.75;;;5.20;;
54555;SDS011;57291;37.520;15.106;2023-05-07T08:53:48;9.73;;;5.15;;
54555;SDS011;57291;37.520;15.106;2023-05-07T08:56:30;8.80;;;5.22;;
54555;SDS011;57291;37.520;15.106;2023-05-07T08:58:57;9.10;;;5.22;;
54555;SDS011;57291;37.520;15.106;2023-05-07T09:01:27;8.93;;;5.20;;
54555;SDS011;57291;37.520;15.106;2023-05-07T09:03:55;8.38;;;5.05;;
54555;SDS011;57291;37.520;15.106;2023-05-07T09:06:25;8.50;;;5.20;;
54555;SDS011;57291;37.520;15.106;2023-05-07T09:08:54;7.50;;;4.68;;
54555;SDS011;57291;37.520;15.106;2023-05-07T09:11:25;8.48;;;5.30;;
54555;SDS011;57291;37.520;15.106;2023-05-07T09:13:55;11.77;;;7.65;;
54555;SDS011;57291;37.520;15.106;2023-05-07T09:16:34;11.35;;;8.52;;
54555;SDS011;57291;37.520;15.106;2023-05-07T09:19:02;11.88;;;8.43;;
54555;SDS011;57291;37.520;15.106;2023-05-07T09:21:29;13.32;;;8.02;;
54555;SDS011;57291;37.520;15.106;2023-05-07T09:23:58;10.65;;;7.43;;
54555;SDS011;57291;37.520;15.106;2023-05-07T09:26:34;10.48;;;7.32;;
54555;SDS011;57291;37.520;15.106;2023-05-07T09:29:04;12.00;;;7.18;;
54555;SDS011;57291;37.520;15.106;2023-05-07T09:31:35;9.82;;;6.57;;
54555;SDS011;57291;37.520;15.106;2023-05-07T09:34:05;8.75;;;6.18;;
54555;SDS011;57291;37.520;15.106;2023-05-07T09:36:34;8.40;;;6.35;;
54555;SDS011;57291;37.520;15.106;2023-05-07T09:39:02;12.23;;;7.22;;
54555;SDS011;57291;37.520;15.106;2023-05-07T09:41:30;10.30;;;6.72;;
54555;SDS011;57291;37.520;15.106;2023-05-07T09:44:06;11.32;;;7.18;;
54555;SDS011;57291;37.520;15.106;2023-05-07T09:46:43;10.85;;;6.40;;
54555;SDS011;57291;37.520;15.106;2023-05-07T09:49:28;8.70;;;6.45;;
54555;SDS011;57291;37.520;15.106;2023-05-07T09:52:03;9.05;;;6.55;;
54555;SDS011;57291;37.520;15.106;2023-05-07T09:57:05;9.48;;;6.63;;
54555;SDS011;57291;37.520;15.106;2023-05-07T09:59:34;10.95;;;6.10;;
54555;SDS011;57291;37.520;15.106;2023-05-07T10:02:09;11.38;;;6.97;;
54555;SDS011;57291;37.520;15.106;2023-05-07T10:04:45;11.40;;;6.90;;
54555;SDS011;57291;37.520;15.106;2023-05-07T10:07:19;8.82;;;6.47;;
54555;SDS011;57291;37.520;15.106;2023-05-07T10:09:51;19.88;;;8.02;;
54555;SDS011;57291;37.520;15.106;2023-05-07T10:12:27;12.57;;;8.02;;
54555;SDS011;57291;37.520;15.106;2023-05-07T10:14:56;11.07;;;7.47;;
54555;SDS011;57291;37.520;15.106;2023-05-07T10:17:24;10.63;;;7.28;;
54555;SDS011;57291;37.520;15.106;2023-05-07T10:19:52;10.85;;;7.38;;
54555;SDS011;57291;37.520;15.106;2023-05-07T10:22:21;11.73;;;7.40;;
54555;SDS011;57291;37.520;15.106;2023-05-07T10:24:50;12.25;;;7.65;;
54555;SDS011;57291;37.520;15.106;2023-05-07T10:27:21;12.35;;;7.45;;
54555;SDS011;57291;37.520;15.106;2023-05-07T10:29:58;9.43;;;6.63;;
54555;SDS011;57291;37.520;15.106;2023-05-07T10:35:14;11.30;;;7.53;;
54555;SDS011;57291;37.520;15.106;2023-05-07T10:37:47;14.65;;;7.72;;
54555;SDS011;57291;37.520;15.106;2023-05-07T10:40:16;12.32;;;7.72;;
54555;SDS011;57291;37.520;15.106;2023-05-07T10:42:58;12.05;;;7.20;;
54555;SDS011;57291;37.520;15.106;2023-05-07T10:52:15;14.85;;;6.78;;
54555;SDS011;57291;37.520;15.106;2023-05-07T10:55:18;10.15;;;5.93;;
54555;SDS011;57291;37.520;15.106;2023-05-07T10:58:27;7.65;;;5.13;;
54555;SDS011;57291;37.520;15.106;2023-05-07T11:04:23;10.10;;;5.60;;
54555;SDS011;57291;37.520;15.106;2023-05-07T11:15:13;11.25;;;6.40;;
54555;SDS011;57291;37.520;15.106;2023-05-07T11:17:52;8.13;;;5.82;;
54555;SDS011;57291;37.520;15.106;2023-05-07T11:26:22;13.13;;;8.45;;
54555;SDS011;57291;37.520;15.106;2023-05-07T11:28:51;9.90;;;5.90;;
54555;SDS011;57291;37.520;15.106;2023-05-07T11:31:26;9.80;;;6.18;;
54555;SDS011;57291;37.520;15.106;2023-05-07T11:34:20;9.30;;;5.93;;
54555;SDS011;57291;37.520;15.106;2023-05-07T11:36:54;8.80;;;6.40;;
54555;SDS011;57291;37.520;15.106;2023-05-07T11:39:41;10.88;;;5.85;;
54555;SDS011;57291;37.520;15.106;2023-05-07T11:45:10;13.25;;;8.07;;
54555;SDS011;57291;37.520;15.106;2023-05-07T11:47:38;9.98;;;5.85;;
54555;SDS011;57291;37.520;15.106;2023-05-07T11:50:10;8.03;;;5.73;;
54555;SDS011;57291;37.520;15.106;2023-05-07T11:52:37;10.18;;;5.63;;
54555;SDS011;57291;37.520;15.106;2023-05-07T11:55:06;8.15;;;5.10;;
54555;SDS011;57291;37.520;15.106;2023-05-07T11:57:35;7.30;;;4.70;;
54555;SDS011;57291;37.520;15.106;2023-05-07T12:00:03;8.07;;;5.70;;
54555;SDS011;57291;37.520;15.106;2023-05-07T12:02:41;7.68;;;5.53;;
54555;SDS011;57291;37.520;15.106;2023-05-07T12:05:09;8.15;;;5.43;;
54555;SDS011;57291;37.520;15.106;2023-05-07T12:07:36;8.98;;;5.18;;
54555;SDS011;57291;37.520;15.106;2023-05-07T12:10:04;10.35;;;6.57;;
54555;SDS011;57291;37.520;15.106;2023-05-07T12:12:39;9.80;;;5.53;;
54555;SDS011;57291;37.520;15.106;2023-05-07T12:15:08;7.25;;;5.15;;
54555;SDS011;57291;37.520;15.106;2023-05-07T12:17:37;9.73;;;5.40;;
54555;SDS011;57291;37.520;15.106;2023-05-07T12:20:05;8.70;;;5.50;;
54555;SDS011;57291;37.520;15.106;2023-05-07T12:22:33;8.00;;;5.35;;
54555;SDS011;57291;37.520;15.106;2023-05-07T12:25:01;7.57;;;5.38;;
54555;SDS011;57291;37.520;15.106;2023-05-07T12:27:29;9.10;;;6.00;;
54555;SDS011;57291;37.520;15.106;2023-05-07T12:29:57;11.40;;;7.00;;
54555;SDS011;57291;37.520;15.106;2023-05-07T12:32:25;10.82;;;6.60;;
54555;SDS011;57291;37.520;15.106;2023-05-07T12:34:53;11.27;;;5.70;;
54555;SDS011;57291;37.520;15.106;2023-05-07T12:37:25;7.80;;;5.63;;
54555;SDS011;57291;37.520;15.106;2023-05-07T12:40:07;8.85;;;5.90;;
54555;SDS011;57291;37.520;15.106;2023-05-07T12:42:36;9.35;;;5.60;;
54555;SDS011;57291;37.520;15.106;2023-05-07T12:45:11;10.00;;;6.03;;
54555;SDS011;57291;37.520;15.106;2023-05-07T12:47:47;8.07;;;6.00;;
54555;SDS011;57291;37.520;15.106;2023-05-07T12:50:15;8.02;;;6.05;;
54555;SDS011;57291;37.520;15.106;2023-05-07T12:52:43;8.07;;;5.82;;
54555;SDS011;57291;37.520;15.106;2023-05-07T12:55:12;10.88;;;5.75;;
54555;SDS011;57291;37.520;15.106;2023-05-07T12:57:42;9.40;;;6.35;;
54555;SDS011;57291;37.520;15.106;2023-05-07T13:00:12;9.30;;;5.82;;
54555;SDS011;57291;37.520;15.106;2023-05-07T13:02:40;9.45;;;5.70;;
54555;SDS011;57291;37.520;15.106;2023-05-07T13:05:08;7.45;;;5.38;;
54555;SDS011;57291;37.520;15.106;2023-05-07T13:07:36;7.45;;;5.57;;
54555;SDS011;57291;37.520;15.106;2023-05-07T13:10:04;8.10;;;6.15;;
54555;SDS011;57291;37.520;15.106;2023-05-07T13:12:32;7.22;;;5.05;;
54555;SDS011;57291;37.520;15.106;2023-05-07T13:14:59;9.20;;;5.80;;
54555;SDS011;57291;37.520;15.106;2023-05-07T13:17:26;10.70;;;6.18;;
54555;SDS011;57291;37.520;15.106;2023-05-07T13:19:53;13.88;;;5.90;;
54555;SDS011;57291;37.520;15.106;2023-05-07T13:22:21;9.05;;;5.85;;
54555;SDS011;57291;37.520;15.106;2023-05-07T13:24:48;8.95;;;5.50;;
54555;SDS011;57291;37.520;15.106;2023-05-07T13:27:15;9.23;;;5.28;;
54555;SDS011;57291;37.520;15.106;2023-05-07T13:29:42;7.13;;;5.60;;
54555;SDS011;57291;37.520;15.106;2023-05-07T13:32:09;7.72;;;5.00;;
54555;SDS011;57291;37.520;15.106;2023-05-07T13:34:36;7.32;;;4.95;;
54555;SDS011;57291;37.520;15.106;2023-05-07T13:37:03;6.18;;;4.68;;
54555;SDS011;57291;37.520;15.106;2023-05-07T13:39:31;7.82;;;4.95;;
54555;SDS011;57291;37.520;15.106;2023-05-07T13:41:58;6.53;;;4.45;;
54555;SDS011;57291;37.520;15.106;2023-05-07T13:44:25;8.20;;;4.32;;
54555;SDS011;57291;37.520;15.106;2023-05-07T13:46:53;6.78;;;4.25;;
54555;SDS011;57291;37.520;15.106;2023-05-07T13:49:20;5.82;;;4.25;;
54555;SDS011;57291;37.520;15.106;2023-05-07T13:51:48;9.80;;;4.70;;
54555;SDS011;57291;37.520;15.106;2023-05-07T13:54:16;5.70;;;4.22;;
54555;SDS011;57291;37.520;15.106;2023-05-07T13:56:44;7.00;;;4.30;;
54555;SDS011;57291;37.520;15.106;2023-05-07T13:59:11;5.90;;;3.80;;
54555;SDS011;57291;37.520;15.106;2023-05-07T14:01:41;6.20;;;4.10;;
54555;SDS011;57291;37.520;15.106;2023-05-07T14:04:10;6.78;;;3.90;;
54555;SDS011;57291;37.520;15.106;2023-05-07T14:06:37;6.72;;;3.78;;
54555;SDS011;57291;37.520;15.106;2023-05-07T14:09:05;5.90;;;3.78;;
54555;SDS011;57291;37.520;15.106;2023-05-07T14:11:32;6.50;;;4.03;;
54555;SDS011;57291;37.520;15.106;2023-05-07T14:14:02;5.63;;;3.85;;
54555;SDS011;57291;37.520;15.106;2023-05-07T14:16:29;6.30;;;3.65;;
54555;SDS011;57291;37.520;15.106;2023-05-07T14:18:56;6.72;;;3.72;;
54555;SDS011;57291;37.520;15.106;2023-05-07T14:21:24;6.47;;;3.50;;
54555;SDS011;57291;37.520;15.106;2023-05-07T14:23:51;8.77;;;3.95;;
54555;SDS011;57291;37.520;15.106;2023-05-07T14:26:20;6.22;;;3.60;;
54555;SDS011;57291;37.520;15.106;2023-05-07T14:28:47;5.63;;;3.25;;
54555;SDS011;57291;37.520;15.106;2023-05-07T14:31:14;4.90;;;3.20;;
54555;SDS011;57291;37.520;15.106;2023-05-07T14:33:41;7.25;;;3.40;;
54555;SDS011;57291;37.520;15.106;2023-05-07T14:36:09;5.28;;;3.13;;
54555;SDS011;57291;37.520;15.106;2023-05-07T14:38:37;6.03;;;3.47;;
54555;SDS011;57291;37.520;15.106;2023-05-07T14:41:04;5.80;;;3.15;;
54555;SDS011;57291;37.520;15.106;2023-05-07T14:43:31;7.55;;;3.58;;
54555;SDS011;57291;37.520;15.106;2023-05-07T14:45:59;4.35;;;3.13;;
54555;SDS011;57291;37.520;15.106;2023-05-07T14:48:26;8.07;;;3.20;;
54555;SDS011;57291;37.520;15.106;2023-05-07T14:50:53;4.63;;;3.20;;
54555;SDS011;57291;37.520;15.106;2023-05-07T14:53:20;7.47;;;3.33;;
54555;SDS011;57291;37.520;15.106;2023-05-07T14:55:48;5.80;;;3.00;;
54555;SDS011;57291;37.520;15.106;2023-05-07T14:58:15;4.47;;;2.83;;
54555;SDS011;57291;37.520;15.106;2023-05-07T15:00:42;5.65;;;3.13;;
54555;SDS011;57291;37.520;15.106;2023-05-07T15:03:10;5.97;;;3.30;;
54555;SDS011;57291;37.520;15.106;2023-05-07T15:05:40;5.43;;;3.30;;